Time;durP1;ratioP1;P1;durP2;ratioP2;P2;SDS_P1;SDS_P2;PMS_P1;PMS_P2;Temp;Humidity;BMP_temperature;BMP_pressure;BME280_temperature;BME280_humidity;BME280_pressure;Samples;Min_cycle;Max_cycle;Signal;HPM_P1;HPM_P2
2021/01/23 00:01:18;;;;;;;;;;;1.70;99.90;;;;;;5099347;28;20363;-79
2021/01/23 00:03:43;;;;;;;;;;;1.80;99.90;;;;;;5118187;27;19949;-80
2021/01/23 00:06:09;;;;;;;;;;;1.70;99.90;;;;;;5099616;28;19999;-80
2021/01/23 00:08:34;;;;;;;;;;;1.70;99.90;;;;;;5118348;27;19944;-79
2021/01/23 00:11:00;;;;;;;;;;;1.70;99.90;;;;;;5118895;27;20002;-79
2021/01/23 00:13:25;;;;;;;;;;;1.70;99.90;;;;;;5099296;28;19946;-79
2021/01/23 00:15:51;;;;;;;;;;;1.60;99.90;;;;;;5119901;27;19976;-80
2021/01/23 00:18:16;;;;;;;;;;;1.60;99.90;;;;;;5123677;27;20383;-79
2021/01/23 00:20:42;;;;;;;;;;;1.60;99.90;;;;;;5101019;27;19912;-79
2021/01/23 00:23:07;;;;;;;;;;;1.60;99.90;;;;;;5099488;28;19912;-79
2021/01/23 00:25:34;;;;;;;;;;;1.60;99.90;;;;;;5118155;27;19938;-79
2021/01/23 00:27:59;;;;;;;;;;;1.60;99.90;;;;;;5118346;27;20337;-79
2021/01/23 00:30:25;;;;;;;;;;;1.60;99.90;;;;;;5117158;27;19908;-79
2021/01/23 00:32:50;;;;;;;;;;;1.60;99.90;;;;;;5101073;27;19968;-79
2021/01/23 00:35:15;;;;;;;;;;;1.60;99.90;;;;;;5112645;28;19908;-80
2021/01/23 00:37:41;;;;;;;;;;;1.60;99.90;;;;;;5117571;27;19922;-79
2021/01/23 00:40:07;;;;;;;;;;;1.60;99.90;;;;;;5117068;27;19907;-79
2021/01/23 00:42:32;;;;;;;;;;;1.60;99.90;;;;;;5116263;27;19953;-80
2021/01/23 00:44:57;;;;;;;;;;;1.60;99.90;;;;;;5119481;27;20011;-80
2021/01/23 00:47:23;;;;;;;;;;;1.60;99.90;;;;;;5105700;28;20012;-80
2021/01/23 00:49:48;;;;;;;;;;;1.60;99.90;;;;;;5118067;27;19908;-80
2021/01/23 00:52:14;;;;;;;;;;;1.60;99.90;;;;;;5100423;28;19915;-80
2021/01/23 00:54:39;;;;;;;;;;;1.60;99.90;;;;;;5117149;27;20359;-79
2021/01/23 00:57:05;;;;;;;;;;;1.60;99.90;;;;;;5116877;27;19907;-79
2021/01/23 00:59:30;;;;;;;;;;;1.60;99.90;;;;;;5097425;28;20018;-80
2021/01/23 01:01:56;;;;;;;;;;;1.60;99.90;;;;;;5097764;27;20252;-80
2021/01/23 01:04:21;;;;;;;;;;;1.60;99.90;;;;;;5114597;28;19940;-80
2021/01/23 01:06:47;;;;;;;;;;;1.60;99.90;;;;;;5117582;27;19908;-80
2021/01/23 01:09:12;;;;;;;;;;;1.60;99.90;;;;;;5118409;27;20348;-80
2021/01/23 01:11:37;;;;;;;;;;;1.60;99.90;;;;;;5098115;28;19915;-80
2021/01/23 01:14:03;;;;;;;;;;;1.60;99.90;;;;;;5116340;27;20014;-80
2021/01/23 01:16:28;;;;;;;;;;;1.60;99.90;;;;;;5115694;28;19907;-80
2021/01/23 01:18:54;;;;;;;;;;;1.60;99.90;;;;;;5127473;27;19932;-79
2021/01/23 01:21:19;;;;;;;;;;;1.60;99.90;;;;;;5097441;28;19911;-80
2021/01/23 01:23:45;;;;;;;;;;;1.60;99.90;;;;;;5098932;28;19911;-80
2021/01/23 01:26:10;;;;;;;;;;;1.60;99.90;;;;;;5118097;27;19999;-80
2021/01/23 01:28:36;;;;;;;;;;;1.70;99.90;;;;;;5115461;28;19954;-80
2021/01/23 01:31:01;;;;;;;;;;;1.70;99.90;;;;;;5097824;27;19908;-80
2021/01/23 01:33:27;;;;;;;;;;;1.70;99.90;;;;;;5115336;28;19947;-80
2021/01/23 01:35:52;;;;;;;;;;;1.70;99.90;;;;;;5117681;27;19908;-79
2021/01/23 01:38:17;;;;;;;;;;;1.70;99.90;;;;;;5097861;28;19907;-79
2021/01/23 01:40:43;;;;;;;;;;;1.70;99.90;;;;;;5097016;28;19929;-79
2021/01/23 01:43:08;;;;;;;;;;;1.80;99.90;;;;;;5115304;28;19957;-80
2021/01/23 01:45:34;;;;;;;;;;;1.80;99.90;;;;;;5126609;27;20007;-80
2021/01/23 01:47:59;;;;;;;;;;;1.80;99.90;;;;;;5098889;28;19915;-80
2021/01/23 01:50:25;;;;;;;;;;;1.80;99.90;;;;;;5118398;27;19912;-80
2021/01/23 01:52:51;;;;;;;;;;;1.80;99.90;;;;;;5098042;28;19912;-80
2021/01/23 01:55:18;;;;;;;;;;;1.70;99.90;;;;;;5115674;27;19907;-80
2021/01/23 01:57:44;;;;;;;;;;;1.70;99.90;;;;;;5096603;28;19939;-80
2021/01/23 02:00:09;;;;;;;;;;;1.70;99.90;;;;;;5114894;28;19943;-80
2021/01/23 02:02:54;;;;;;;;;;;1.70;99.90;;;;;;5119501;27;20394;-80
2021/01/23 02:05:38;;;;;;;;;;;1.60;99.90;;;;;;5116984;27;19914;-80
2021/01/23 02:08:06;;;;;;;;;;;1.60;99.90;;;;;;5096269;28;19908;-80
2021/01/23 02:10:46;;;;;;;;;;;1.60;99.90;;;;;;5116748;27;19916;-80
2021/01/23 02:13:15;;;;;;;;;;;1.70;99.90;;;;;;5114918;27;19920;-80
2021/01/23 02:15:47;;;;;;;;;;;1.60;99.90;;;;;;5096476;28;20437;-80
2021/01/23 02:18:14;;;;;;;;;;;1.60;99.90;;;;;;5120149;27;19914;-80
2021/01/23 02:20:48;;;;;;;;;;;1.70;99.90;;;;;;5120406;27;19930;-79
2021/01/23 02:23:23;;;;;;;;;;;1.60;99.90;;;;;;5115860;27;19912;-80
2021/01/23 02:25:54;;;;;;;;;;;1.70;99.90;;;;;;5116331;27;19946;-80
2021/01/23 02:28:21;;;;;;;;;;;1.70;99.90;;;;;;5115166;27;19911;-80
2021/01/23 02:30:59;;;;;;;;;;;1.80;99.90;;;;;;5095877;28;19908;-80
2021/01/23 02:33:27;;;;;;;;;;;1.80;99.90;;;;;;5114464;27;19960;-80
2021/01/23 02:35:53;;;;;;;;;;;1.80;99.90;;;;;;5102461;28;19956;-80
2021/01/23 02:38:22;;;;;;;;;;;1.80;99.90;;;;;;5115773;27;20006;-80
2021/01/23 02:40:47;;;;;;;;;;;1.90;99.90;;;;;;5096301;28;19907;-80
2021/01/23 02:43:13;;;;;;;;;;;1.90;99.90;;;;;;5095789;28;19918;-79
2021/01/23 02:45:38;;;;;;;;;;;1.90;99.90;;;;;;5116627;27;19915;-80
2021/01/23 02:48:04;;;;;;;;;;;2.00;99.90;;;;;;5116255;27;19908;-80
2021/01/23 02:50:29;;;;;;;;;;;2.00;99.90;;;;;;5115693;27;19907;-79
2021/01/23 02:53:16;;;;;;;;;;;2.00;99.90;;;;;;5115045;27;19908;-80
2021/01/23 02:55:45;;;;;;;;;;;2.00;99.90;;;;;;5095520;28;19911;-79
2021/01/23 02:58:11;;;;;;;;;;;2.10;99.90;;;;;;5114231;28;20359;-80
2021/01/23 03:00:37;;;;;;;;;;;2.10;99.90;;;;;;5116342;27;19919;-80
2021/01/23 03:03:03;;;;;;;;;;;2.10;99.90;;;;;;5097619;28;19912;-80
2021/01/23 03:05:30;;;;;;;;;;;2.20;99.90;;;;;;5096733;27;19915;-79
2021/01/23 03:07:56;;;;;;;;;;;2.20;99.90;;;;;;5115270;27;19915;-79
2021/01/23 03:10:33;;;;;;;;;;;2.20;99.90;;;;;;5114913;27;19908;-79
2021/01/23 03:12:59;;;;;;;;;;;2.20;99.90;;;;;;5114253;27;19999;-78
2021/01/23 03:15:24;;;;;;;;;;;2.30;99.90;;;;;;5114140;28;19943;-79
2021/01/23 03:17:49;;;;;;;;;;;2.30;99.90;;;;;;5097395;27;19907;-79
2021/01/23 03:20:15;;;;;;;;;;;2.40;99.90;;;;;;5104179;28;19915;-80
2021/01/23 03:22:40;;;;;;;;;;;2.30;99.90;;;;;;5098910;27;19959;-79
2021/01/23 03:25:06;;;;;;;;;;;2.30;99.90;;;;;;5096619;28;20436;-79
2021/01/23 03:27:31;;;;;;;;;;;2.40;99.90;;;;;;5114633;28;20351;-79
2021/01/23 03:29:57;;;;;;;;;;;2.40;99.90;;;;;;5113999;28;19907;-79
2021/01/23 03:32:22;;;;;;;;;;;2.40;99.90;;;;;;5113463;27;19907;-80
2021/01/23 03:34:48;;;;;;;;;;;2.40;99.90;;;;;;5096939;27;20351;-79
2021/01/23 03:37:13;;;;;;;;;;;2.40;99.90;;;;;;5114456;27;20355;-79
2021/01/23 03:39:39;;;;;;;;;;;2.40;99.90;;;;;;5095780;28;19961;-79
2021/01/23 03:42:04;;;;;;;;;;;2.40;99.90;;;;;;5097679;28;19908;-78
2021/01/23 03:44:30;;;;;;;;;;;2.50;99.90;;;;;;5112885;28;19911;-78
2021/01/23 03:46:55;;;;;;;;;;;2.50;99.90;;;;;;5117830;28;19958;-79
2021/01/23 03:49:20;;;;;;;;;;;2.50;99.90;;;;;;5096596;28;19977;-79
2021/01/23 03:51:46;;;;;;;;;;;2.60;99.90;;;;;;5115234;28;19972;-79
2021/01/23 03:54:11;;;;;;;;;;;2.50;99.90;;;;;;5101610;28;19908;-79
2021/01/23 03:56:37;;;;;;;;;;;2.60;99.90;;;;;;5113777;28;20392;-79
2021/01/23 03:59:02;;;;;;;;;;;2.60;99.90;;;;;;5113497;28;19908;-78
2021/01/23 04:01:28;;;;;;;;;;;2.60;99.90;;;;;;5112985;28;20291;-79
2021/01/23 04:03:53;;;;;;;;;;;2.70;99.90;;;;;;5096497;28;19935;-78
2021/01/23 04:06:19;;;;;;;;;;;2.70;99.90;;;;;;5096786;28;19915;-78
2021/01/23 04:08:44;;;;;;;;;;;2.80;99.90;;;;;;5114652;28;19993;-79
2021/01/23 04:11:10;;;;;;;;;;;2.70;99.90;;;;;;5115197;28;20256;-79
2021/01/23 04:13:35;;;;;;;;;;;2.70;99.90;;;;;;5095169;28;19912;-79
2021/01/23 04:16:00;;;;;;;;;;;2.80;99.90;;;;;;5113630;28;19951;-79
2021/01/23 04:18:26;;;;;;;;;;;2.80;99.90;;;;;;5115155;28;19912;-79
2021/01/23 04:20:51;;;;;;;;;;;2.80;99.90;;;;;;5117325;28;20287;-79
2021/01/23 04:23:17;;;;;;;;;;;2.80;99.90;;;;;;5101929;28;19912;-79
2021/01/23 04:25:42;;;;;;;;;;;2.90;99.90;;;;;;5096124;28;19908;-79
2021/01/23 04:28:08;;;;;;;;;;;2.90;99.90;;;;;;5113888;28;19914;-78
2021/01/23 04:30:33;;;;;;;;;;;2.90;99.90;;;;;;5113322;28;19915;-78
2021/01/23 04:32:59;;;;;;;;;;;2.90;99.90;;;;;;5094136;28;19912;-79
2021/01/23 04:35:24;;;;;;;;;;;2.90;99.90;;;;;;5113592;28;19915;-78
2021/01/23 04:37:50;;;;;;;;;;;2.90;99.90;;;;;;5113847;28;20291;-79
2021/01/23 04:40:15;;;;;;;;;;;2.90;99.90;;;;;;5113061;28;20011;-79
2021/01/23 04:42:41;;;;;;;;;;;2.90;99.90;;;;;;5094666;28;19957;-79
2021/01/23 04:45:08;;;;;;;;;;;2.90;99.90;;;;;;5115748;27;20367;-79
2021/01/23 04:47:33;;;;;;;;;;;2.90;99.90;;;;;;5119147;27;19916;-79
2021/01/23 04:49:59;;;;;;;;;;;2.90;99.90;;;;;;5097769;28;20304;-78
2021/01/23 04:52:24;;;;;;;;;;;2.90;99.90;;;;;;5122335;27;19908;-78
2021/01/23 04:54:50;;;;;;;;;;;2.90;99.90;;;;;;5117435;27;19908;-79
2021/01/23 04:57:15;;;;;;;;;;;2.90;99.90;;;;;;5116678;27;19908;-79
2021/01/23 04:59:41;;;;;;;;;;;2.80;99.90;;;;;;5098184;28;19927;-79
2021/01/23 05:02:17;;;;;;;;;;;2.80;99.90;;;;;;5099429;27;20382;-79
2021/01/23 05:04:46;;;;;;;;;;;2.70;99.90;;;;;;5118253;27;20385;-79
2021/01/23 05:07:22;;;;;;;;;;;2.70;99.90;;;;;;5119630;27;20386;-79
2021/01/23 05:09:48;;;;;;;;;;;2.70;99.90;;;;;;5097548;28;20283;-79
2021/01/23 05:12:13;;;;;;;;;;;2.60;99.90;;;;;;5098349;27;19927;-79
2021/01/23 05:14:51;;;;;;;;;;;2.70;99.90;;;;;;5116279;27;20381;-79
2021/01/23 05:17:17;;;;;;;;;;;2.70;99.90;;;;;;5098229;27;19907;-79
2021/01/23 05:19:43;;;;;;;;;;;2.70;99.90;;;;;;5101956;28;19915;-78
2021/01/23 05:22:09;;;;;;;;;;;2.60;99.90;;;;;;5117955;27;19908;-79
2021/01/23 05:24:47;;;;;;;;;;;2.70;99.90;;;;;;5097146;28;19912;-79
2021/01/23 05:27:13;;;;;;;;;;;2.70;99.90;;;;;;5117019;27;20172;-80
2021/01/23 05:29:52;;;;;;;;;;;2.60;99.90;;;;;;5114617;27;19933;-79
2021/01/23 05:32:17;;;;;;;;;;;2.70;99.90;;;;;;5123363;27;20363;-79
2021/01/23 05:34:43;;;;;;;;;;;2.70;99.90;;;;;;5115569;27;19915;-79
2021/01/23 05:37:08;;;;;;;;;;;2.60;99.90;;;;;;5098319;28;19961;-79
2021/01/23 05:39:44;;;;;;;;;;;2.60;99.90;;;;;;5097861;28;19912;-79
2021/01/23 05:42:11;;;;;;;;;;;2.60;99.90;;;;;;5116448;27;19907;-79
2021/01/23 05:44:36;;;;;;;;;;;2.50;99.90;;;;;;5096791;28;20272;-79
2021/01/23 05:47:22;;;;;;;;;;;2.50;99.90;;;;;;5108361;28;19915;-79
2021/01/23 05:49:49;;;;;;;;;;;2.50;99.90;;;;;;5117023;27;19908;-79
2021/01/23 05:52:14;;;;;;;;;;;2.50;99.90;;;;;;5108038;28;19919;-79
2021/01/23 05:54:40;;;;;;;;;;;2.40;99.90;;;;;;5116304;27;19908;-79
2021/01/23 05:57:05;;;;;;;;;;;2.40;99.90;;;;;;5115669;27;19908;-79
2021/01/23 05:59:31;;;;;;;;;;;2.40;99.90;;;;;;5097607;28;19924;-79
2021/01/23 06:01:57;;;;;;;;;;;2.40;99.90;;;;;;5096371;28;20311;-79
2021/01/23 06:04:25;;;;;;;;;;;2.40;99.90;;;;;;5117055;27;20256;-79
2021/01/23 06:06:51;;;;;;;;;;;2.40;99.90;;;;;;5116745;27;20014;-79
2021/01/23 06:09:33;;;;;;;;;;;2.40;99.90;;;;;;5099780;27;19994;-79
2021/01/23 06:11:58;;;;;;;;;;;2.50;99.90;;;;;;5096268;28;19908;-79
2021/01/23 06:14:36;;;;;;;;;;;2.50;99.90;;;;;;5116266;27;20029;-79
2021/01/23 06:17:01;;;;;;;;;;;2.50;99.90;;;;;;5114495;27;19935;-79
2021/01/23 06:19:27;;;;;;;;;;;2.50;99.90;;;;;;5101057;27;20343;-79
2021/01/23 06:21:53;;;;;;;;;;;2.50;99.90;;;;;;5116854;27;20007;-79
2021/01/23 06:24:41;;;;;;;;;;;2.40;99.90;;;;;;5116533;27;19917;-79
2021/01/23 06:27:06;;;;;;;;;;;2.40;99.90;;;;;;5115897;27;19908;-80
2021/01/23 06:29:39;;;;;;;;;;;2.50;99.90;;;;;;5135274;27;19914;-79
2021/01/23 06:32:13;;;;;;;;;;;2.60;99.90;;;;;;5135406;27;19915;-79
2021/01/23 06:35:08;;;;;;;;;;;2.60;99.90;;;;;;5117283;27;19915;-79
2021/01/23 06:37:40;;;;;;;;;;;2.60;99.90;;;;;;5112943;27;20002;-79
2021/01/23 06:40:11;;;;;;;;;;;2.70;99.90;;;;;;5116941;27;19973;-79
2021/01/23 06:42:49;;;;;;;;;;;2.70;99.90;;;;;;5135183;27;19930;-79
2021/01/23 06:45:19;;;;;;;;;;;2.70;99.90;;;;;;5135202;27;19912;-79
2021/01/23 06:47:46;;;;;;;;;;;2.70;99.90;;;;;;5135304;27;19952;-79
2021/01/23 06:50:11;;;;;;;;;;;2.70;99.90;;;;;;5116715;27;19990;-78
2021/01/23 06:52:46;;;;;;;;;;;2.70;99.90;;;;;;5134910;27;20005;-79
2021/01/23 06:55:12;;;;;;;;;;;2.70;99.90;;;;;;5135153;27;19967;-79
2021/01/23 06:57:44;;;;;;;;;;;2.70;99.90;;;;;;5135126;27;19911;-79
2021/01/23 07:00:10;;;;;;;;;;;2.70;99.90;;;;;;5134935;27;20383;-79
2021/01/23 07:02:36;;;;;;;;;;;2.70;99.90;;;;;;5116470;27;19999;-79
2021/01/23 07:05:05;;;;;;;;;;;2.70;99.90;;;;;;5106622;27;19915;-79
2021/01/23 07:07:35;;;;;;;;;;;2.70;99.90;;;;;;5105519;27;19912;-79
2021/01/23 07:10:04;;;;;;;;;;;2.70;99.90;;;;;;5131883;27;19950;-79
2021/01/23 07:12:33;;;;;;;;;;;2.70;99.90;;;;;;5107236;27;19951;-79
2021/01/23 07:14:58;;;;;;;;;;;2.60;99.90;;;;;;5104223;27;19956;-79
2021/01/23 07:17:24;;;;;;;;;;;2.60;99.90;;;;;;5099507;27;19907;-79
2021/01/23 07:19:49;;;;;;;;;;;2.60;99.90;;;;;;5134773;27;19908;-78
2021/01/23 07:22:14;;;;;;;;;;;2.60;99.90;;;;;;5116117;28;19907;-79
2021/01/23 07:24:40;;;;;;;;;;;2.60;99.90;;;;;;5134413;27;19912;-79
2021/01/23 07:27:06;;;;;;;;;;;2.60;99.90;;;;;;5112733;28;19912;-79
2021/01/23 07:29:31;;;;;;;;;;;2.60;99.90;;;;;;5116537;27;20004;-79
2021/01/23 07:31:56;;;;;;;;;;;2.60;99.90;;;;;;5095531;28;20301;-79
2021/01/23 07:34:22;;;;;;;;;;;2.60;99.90;;;;;;5095659;28;19914;-79
2021/01/23 07:36:47;;;;;;;;;;;2.60;99.90;;;;;;5097825;27;19911;-79
2021/01/23 07:39:14;;;;;;;;;;;2.70;99.90;;;;;;5124793;27;20022;-79
2021/01/23 07:41:41;;;;;;;;;;;2.70;99.90;;;;;;5095675;28;19908;-79
2021/01/23 07:44:09;;;;;;;;;;;2.70;99.90;;;;;;5119024;27;20313;-79
2021/01/23 07:46:36;;;;;;;;;;;2.70;99.90;;;;;;5123092;27;19915;-79
2021/01/23 07:49:01;;;;;;;;;;;2.70;99.90;;;;;;5116390;28;20367;-80
2021/01/23 07:51:27;;;;;;;;;;;2.70;99.90;;;;;;5124108;28;19908;-80
2021/01/23 07:54:03;;;;;;;;;;;2.70;99.90;;;;;;5103941;28;19908;-80
2021/01/23 07:56:28;;;;;;;;;;;2.80;99.90;;;;;;5122720;28;19907;-80
2021/01/23 07:58:54;;;;;;;;;;;2.90;99.90;;;;;;5130552;28;19971;-80
2021/01/23 08:01:19;;;;;;;;;;;2.90;99.90;;;;;;5133708;28;19935;-80
2021/01/23 08:03:45;;;;;;;;;;;2.90;99.90;;;;;;5115698;28;19956;-79
2021/01/23 08:06:20;;;;;;;;;;;3.00;99.90;;;;;;5134104;28;19908;-80
2021/01/23 08:08:47;;;;;;;;;;;3.10;99.90;;;;;;5134025;28;20379;-79
2021/01/23 08:11:31;;;;;;;;;;;3.10;99.90;;;;;;5134111;28;19991;-79
2021/01/23 08:14:05;;;;;;;;;;;3.20;99.90;;;;;;5115663;28;19915;-80
2021/01/23 08:16:31;;;;;;;;;;;3.30;99.90;;;;;;5115695;28;20062;-80
2021/01/23 08:19:06;;;;;;;;;;;3.30;99.90;;;;;;5119548;28;20010;-79
2021/01/23 08:21:32;;;;;;;;;;;3.40;99.90;;;;;;5117219;28;19911;-79
2021/01/23 08:23:57;;;;;;;;;;;3.50;99.90;;;;;;5117748;28;20064;-79
2021/01/23 08:26:37;;;;;;;;;;;3.50;99.90;;;;;;5114267;28;19947;-80
2021/01/23 08:29:03;;;;;;;;;;;3.50;99.90;;;;;;5116837;28;19992;-80
2021/01/23 08:31:28;;;;;;;;;;;3.50;99.90;;;;;;5130873;27;19959;-80
2021/01/23 08:33:55;;;;;;;;;;;3.50;99.90;;;;;;5119473;27;19907;-80
2021/01/23 08:36:30;;;;;;;;;;;3.50;99.90;;;;;;5122744;27;19949;-79
2021/01/23 08:38:57;;;;;;;;;;;3.60;99.90;;;;;;5115890;27;19907;-80
2021/01/23 08:41:22;;;;;;;;;;;3.70;99.90;;;;;;5115959;28;19908;-79
2021/01/23 08:43:48;;;;;;;;;;;3.70;99.90;;;;;;5116991;28;20047;-80
2021/01/23 08:46:13;;;;;;;;;;;3.80;99.90;;;;;;5117023;28;19931;-80
2021/01/23 08:48:39;;;;;;;;;;;3.70;99.90;;;;;;5116190;28;19908;-81
2021/01/23 08:51:04;;;;;;;;;;;3.70;99.90;;;;;;5116599;28;19908;-80
2021/01/23 08:53:30;;;;;;;;;;;3.70;99.90;;;;;;5102678;27;20373;-81
2021/01/23 08:55:55;;;;;;;;;;;3.80;99.90;;;;;;5119028;27;19951;-81
2021/01/23 08:58:20;;;;;;;;;;;3.90;99.90;;;;;;5116255;28;19912;-81
2021/01/23 09:00:46;;;;;;;;;;;3.90;99.90;;;;;;5127586;27;19920;-81
2021/01/23 09:03:11;;;;;;;;;;;4.00;99.90;;;;;;5107431;28;19920;-81
2021/01/23 09:05:37;;;;;;;;;;;4.00;99.90;;;;;;5097935;27;20294;-81
2021/01/23 09:08:03;;;;;;;;;;;4.10;99.90;;;;;;5099872;28;20015;-81
2021/01/23 09:10:28;;;;;;;;;;;4.10;99.90;;;;;;5116390;27;19915;-81
2021/01/23 09:12:54;;;;;;;;;;;4.10;99.90;;;;;;5119199;27;19916;-81
2021/01/23 09:15:19;;;;;;;;;;;4.20;99.90;;;;;;5134023;27;19915;-81
2021/01/23 09:17:44;;;;;;;;;;;4.20;99.90;;;;;;5113533;27;20347;-81
2021/01/23 09:20:11;;;;;;;;;;;4.20;99.90;;;;;;5118456;27;19914;-81
2021/01/23 09:22:36;;;;;;;;;;;4.30;99.90;;;;;;5115715;28;19911;-80
2021/01/23 09:25:02;;;;;;;;;;;4.30;99.90;;;;;;5115788;28;20007;-80
2021/01/23 09:27:27;;;;;;;;;;;4.30;99.90;;;;;;5105141;28;19908;-81
2021/01/23 09:29:53;;;;;;;;;;;4.40;99.90;;;;;;5108231;27;19916;-81
2021/01/23 09:32:18;;;;;;;;;;;4.30;99.90;;;;;;5103276;28;19957;-81
2021/01/23 09:34:44;;;;;;;;;;;4.40;99.90;;;;;;5124306;27;19907;-81
2021/01/23 09:37:09;;;;;;;;;;;4.40;99.90;;;;;;5097566;28;20288;-81
2021/01/23 09:39:35;;;;;;;;;;;4.40;99.90;;;;;;5096928;28;19907;-81
2021/01/23 09:42:00;;;;;;;;;;;4.50;99.90;;;;;;5096331;28;19907;-80
2021/01/23 09:44:27;;;;;;;;;;;4.50;99.90;;;;;;5115105;28;20002;-80
2021/01/23 09:46:53;;;;;;;;;;;4.50;99.90;;;;;;5117418;27;19912;-80
2021/01/23 09:49:18;;;;;;;;;;;4.50;99.90;;;;;;5135484;27;19907;-80
2021/01/23 09:51:44;;;;;;;;;;;4.50;99.90;;;;;;5120980;27;20310;-81
2021/01/23 09:54:09;;;;;;;;;;;4.50;99.90;;;;;;5115931;27;19968;-80
2021/01/23 09:56:34;;;;;;;;;;;4.50;99.90;;;;;;5116691;27;19965;-80
2021/01/23 09:59:00;;;;;;;;;;;4.60;99.90;;;;;;5099192;27;19907;-81
2021/01/23 10:01:25;;;;;;;;;;;4.60;99.90;;;;;;5097834;28;19911;-80
2021/01/23 10:03:51;;;;;;;;;;;4.60;99.90;;;;;;5115130;27;19916;-80
2021/01/23 10:06:16;;;;;;;;;;;4.70;99.90;;;;;;5114901;27;20371;-80
2021/01/23 10:08:42;;;;;;;;;;;4.70;99.90;;;;;;5109336;27;20280;-80
2021/01/23 10:11:07;;;;;;;;;;;4.70;99.90;;;;;;5112853;27;19911;-80
2021/01/23 10:13:36;;;;;;;;;;;4.80;99.90;;;;;;5105121;27;19950;-81
2021/01/23 10:16:02;;;;;;;;;;;4.80;99.90;;;;;;5117410;27;20006;-80
2021/01/23 10:18:27;;;;;;;;;;;4.80;99.90;;;;;;5115276;27;19969;-80
2021/01/23 10:20:53;;;;;;;;;;;4.80;99.90;;;;;;5096450;27;19911;-80
2021/01/23 10:23:18;;;;;;;;;;;4.90;99.90;;;;;;5103283;27;19911;-80
2021/01/23 10:25:44;;;;;;;;;;;5.00;99.90;;;;;;5100370;28;19912;-80
2021/01/23 10:28:09;;;;;;;;;;;5.00;99.90;;;;;;5113958;28;19907;-80
2021/01/23 10:30:35;;;;;;;;;;;5.00;99.90;;;;;;5116905;27;19951;-80
2021/01/23 10:33:00;;;;;;;;;;;5.10;99.90;;;;;;5118573;27;20010;-80
2021/01/23 10:35:26;;;;;;;;;;;5.10;99.90;;;;;;5118789;27;19907;-80
2021/01/23 10:37:51;;;;;;;;;;;5.20;99.90;;;;;;5097591;27;20339;-80
2021/01/23 10:40:17;;;;;;;;;;;5.30;99.90;;;;;;5115655;27;19908;-81
2021/01/23 10:42:43;;;;;;;;;;;5.40;99.90;;;;;;5113820;27;19911;-81
2021/01/23 10:45:08;;;;;;;;;;;5.50;99.90;;;;;;5114422;27;19919;-81
2021/01/23 10:47:34;;;;;;;;;;;5.60;99.90;;;;;;5095641;28;20278;-81
2021/01/23 10:50:00;;;;;;;;;;;5.70;99.90;;;;;;5118053;27;19914;-81
2021/01/23 10:52:25;;;;;;;;;;;5.80;99.90;;;;;;5097734;28;20282;-81
2021/01/23 10:54:51;;;;;;;;;;;5.90;99.90;;;;;;5096784;28;19921;-81
2021/01/23 10:57:16;;;;;;;;;;;6.00;99.90;;;;;;5115720;27;19923;-80
2021/01/23 10:59:42;;;;;;;;;;;6.50;99.00;;;;;;5097515;28;19924;-80
2021/01/23 11:02:07;;;;;;;;;;;7.00;97.70;;;;;;5095292;28;19976;-80
2021/01/23 11:04:32;;;;;;;;;;;7.60;96.20;;;;;;5116047;27;19998;-80
2021/01/23 11:06:58;;;;;;;;;;;7.80;94.60;;;;;;5114401;28;20436;-80
2021/01/23 11:09:23;;;;;;;;;;;8.00;94.80;;;;;;5114896;27;19947;-80
2021/01/23 11:11:49;;;;;;;;;;;8.00;94.20;;;;;;5113555;27;20363;-80
2021/01/23 11:14:14;;;;;;;;;;;7.90;93.10;;;;;;5115397;27;20359;-80
2021/01/23 11:16:40;;;;;;;;;;;7.80;93.20;;;;;;5115601;27;19908;-80
2021/01/23 11:19:05;;;;;;;;;;;7.50;93.40;;;;;;5095095;27;20290;-80
2021/01/23 11:21:31;;;;;;;;;;;7.50;93.40;;;;;;5102347;28;19908;-80
2021/01/23 11:23:56;;;;;;;;;;;7.50;93.10;;;;;;5125910;27;20259;-80
2021/01/23 11:26:22;;;;;;;;;;;7.40;93.80;;;;;;5115143;27;19919;-80
2021/01/23 11:28:48;;;;;;;;;;;7.10;94.30;;;;;;5123809;27;19919;-80
2021/01/23 11:31:13;;;;;;;;;;;7.00;94.30;;;;;;5130783;27;19908;-80
2021/01/23 11:33:40;;;;;;;;;;;7.00;94.60;;;;;;5132201;27;19911;-80
2021/01/23 11:36:06;;;;;;;;;;;6.90;94.20;;;;;;5119371;27;19912;-80
2021/01/23 11:38:31;;;;;;;;;;;7.00;94.70;;;;;;5115291;28;19908;-80
2021/01/23 11:40:57;;;;;;;;;;;7.10;94.40;;;;;;5114879;27;20342;-81
2021/01/23 11:43:22;;;;;;;;;;;7.10;94.30;;;;;;5116528;27;19912;-80
2021/01/23 11:45:48;;;;;;;;;;;7.10;93.90;;;;;;5113773;28;19965;-81
2021/01/23 11:48:16;;;;;;;;;;;6.90;93.70;;;;;;5091828;28;19915;-80
2021/01/23 11:50:41;;;;;;;;;;;6.80;94.00;;;;;;5114993;28;19971;-80
2021/01/23 11:53:07;;;;;;;;;;;6.70;94.30;;;;;;5098913;28;19907;-81
2021/01/23 11:55:32;;;;;;;;;;;6.60;94.80;;;;;;5118815;27;19907;-80
2021/01/23 11:57:58;;;;;;;;;;;6.60;94.90;;;;;;5110915;27;19912;-81
2021/01/23 12:00:23;;;;;;;;;;;6.50;95.20;;;;;;5108713;27;19967;-81
2021/01/23 12:02:49;;;;;;;;;;;6.40;95.40;;;;;;5121617;27;19990;-81
2021/01/23 12:05:19;;;;;;;;;;;6.40;96.00;;;;;;5108289;27;19937;-81
2021/01/23 12:07:48;;;;;;;;;;;6.40;96.20;;;;;;5109383;27;19912;-81
2021/01/23 12:10:14;;;;;;;;;;;6.30;96.20;;;;;;5119959;27;19943;-81
2021/01/23 12:12:40;;;;;;;;;;;6.30;96.70;;;;;;5101990;27;19934;-80
2021/01/23 12:15:05;;;;;;;;;;;6.20;96.80;;;;;;5127969;27;20371;-81
2021/01/23 12:17:31;;;;;;;;;;;6.20;97.30;;;;;;5098934;27;20029;-81
2021/01/23 12:19:56;;;;;;;;;;;6.20;97.80;;;;;;5107072;28;20028;-81
2021/01/23 12:22:22;;;;;;;;;;;6.30;98.00;;;;;;5119634;27;19908;-81
2021/01/23 12:24:47;;;;;;;;;;;6.30;97.90;;;;;;5122276;27;20399;-80
2021/01/23 12:27:13;;;;;;;;;;;6.30;97.80;;;;;;5106760;27;19907;-81
2021/01/23 12:29:38;;;;;;;;;;;6.20;97.60;;;;;;5124849;27;19911;-80
2021/01/23 12:32:06;;;;;;;;;;;6.10;97.40;;;;;;5119649;27;19915;-80
2021/01/23 12:34:35;;;;;;;;;;;6.10;97.30;;;;;;5099646;27;19919;-81
2021/01/23 12:37:00;;;;;;;;;;;6.10;98.00;;;;;;5120324;27;19908;-80
2021/01/23 12:39:26;;;;;;;;;;;6.10;98.10;;;;;;5119189;27;19937;-80
2021/01/23 12:41:51;;;;;;;;;;;6.10;98.20;;;;;;5122299;27;19927;-80
2021/01/23 12:44:17;;;;;;;;;;;6.10;98.20;;;;;;5100232;28;19955;-80
2021/01/23 12:46:43;;;;;;;;;;;6.10;98.70;;;;;;5130196;27;19912;-80
2021/01/23 12:49:08;;;;;;;;;;;6.10;98.80;;;;;;5097890;28;19915;-81
2021/01/23 12:51:33;;;;;;;;;;;6.10;98.60;;;;;;5097623;28;19908;-80
2021/01/23 12:53:59;;;;;;;;;;;6.00;98.00;;;;;;5098291;28;19908;-81
2021/01/23 12:56:24;;;;;;;;;;;6.00;98.40;;;;;;5097820;28;20347;-82
2021/01/23 12:58:50;;;;;;;;;;;6.10;98.70;;;;;;5108430;27;19916;-81
2021/01/23 13:01:15;;;;;;;;;;;6.10;98.60;;;;;;5118349;27;19919;-81
2021/01/23 13:03:40;;;;;;;;;;;6.10;98.20;;;;;;5116436;27;19911;-81
2021/01/23 13:06:09;;;;;;;;;;;6.10;98.40;;;;;;5103787;28;19908;-81
2021/01/23 13:08:35;;;;;;;;;;;6.20;98.80;;;;;;5118504;27;19920;-81
2021/01/23 13:11:00;;;;;;;;;;;6.20;98.40;;;;;;5117168;27;19931;-81
2021/01/23 13:13:26;;;;;;;;;;;6.20;98.30;;;;;;5096441;27;19911;-81
2021/01/23 13:15:52;;;;;;;;;;;6.20;98.30;;;;;;5115542;27;19908;-81
2021/01/23 13:18:17;;;;;;;;;;;6.30;98.30;;;;;;5119665;27;19908;-82
2021/01/23 13:20:43;;;;;;;;;;;6.30;98.30;;;;;;5098719;28;19908;-81
2021/01/23 13:23:08;;;;;;;;;;;6.20;97.90;;;;;;5117159;27;19908;-81
2021/01/23 13:25:34;;;;;;;;;;;6.20;97.80;;;;;;5100764;27;19954;-80
2021/01/23 13:27:59;;;;;;;;;;;6.10;97.90;;;;;;5103547;27;19919;-81
2021/01/23 13:30:25;;;;;;;;;;;6.10;98.40;;;;;;5122165;27;19938;-80
2021/01/23 13:32:52;;;;;;;;;;;6.20;98.80;;;;;;5131014;27;20437;-80
2021/01/23 13:35:17;;;;;;;;;;;6.20;98.60;;;;;;5110452;27;19914;-80
2021/01/23 13:37:43;;;;;;;;;;;6.20;98.60;;;;;;5124499;27;19912;-80
2021/01/23 13:40:08;;;;;;;;;;;6.20;98.60;;;;;;5121563;27;20291;-80
2021/01/23 13:42:34;;;;;;;;;;;6.20;98.70;;;;;;5122769;27;19914;-80
2021/01/23 13:44:59;;;;;;;;;;;6.20;99.00;;;;;;5123632;27;19912;-81
2021/01/23 13:47:25;;;;;;;;;;;6.20;99.10;;;;;;5129081;27;20370;-79
2021/01/23 13:49:50;;;;;;;;;;;6.20;98.80;;;;;;5099952;27;20407;-80
2021/01/23 13:52:16;;;;;;;;;;;6.20;99.00;;;;;;5115844;27;19915;-80
2021/01/23 13:54:44;;;;;;;;;;;6.20;99.30;;;;;;5125445;27;19918;-80
2021/01/23 13:57:12;;;;;;;;;;;6.20;99.50;;;;;;5105051;27;19919;-80
2021/01/23 13:59:39;;;;;;;;;;;6.20;99.60;;;;;;5127102;27;19919;-80
2021/01/23 14:02:05;;;;;;;;;;;6.20;99.90;;;;;;5120576;27;19912;-80
2021/01/23 14:04:30;;;;;;;;;;;6.30;99.90;;;;;;5097144;27;19912;-81
2021/01/23 14:06:55;;;;;;;;;;;6.30;99.90;;;;;;5101574;28;19907;-81
2021/01/23 14:09:21;;;;;;;;;;;6.30;99.80;;;;;;5121813;27;19919;-81
2021/01/23 14:11:47;;;;;;;;;;;6.30;99.90;;;;;;5105165;27;19908;-81
2021/01/23 14:14:12;;;;;;;;;;;6.30;99.90;;;;;;5122195;27;19912;-80
2021/01/23 14:16:37;;;;;;;;;;;6.30;99.90;;;;;;5097948;28;19907;-80
2021/01/23 14:19:03;;;;;;;;;;;6.30;99.90;;;;;;5124682;27;19911;-81
2021/01/23 14:21:28;;;;;;;;;;;6.30;99.90;;;;;;5130607;27;20370;-80
2021/01/23 14:23:54;;;;;;;;;;;6.30;99.90;;;;;;5124531;27;19916;-80
2021/01/23 14:26:19;;;;;;;;;;;6.20;99.90;;;;;;5120557;27;20003;-80
2021/01/23 14:28:45;;;;;;;;;;;6.20;99.90;;;;;;5124294;27;19911;-80